createdAt,value
2022-12-11T00:02:52.487Z,1.00
2022-12-11T00:08:24.575Z,1.00
2022-12-11T00:13:56.594Z,1.00
2022-12-11T00:19:28.339Z,1.00
2022-12-11T00:25:00.244Z,1.00
2022-12-11T00:30:31.516Z,0.00
2022-12-11T00:36:03.298Z,1.00
2022-12-11T00:41:35.075Z,0.00
2022-12-11T00:47:07.515Z,1.00
2022-12-11T00:52:39.376Z,0.00
2022-12-11T00:58:11.167Z,1.00
2022-12-11T01:03:43.483Z,1.00
2022-12-11T01:09:15.835Z,1.00
2022-12-11T01:14:47.937Z,0.00
2022-12-11T01:25:49.438Z,0.00
2022-12-11T01:31:20.922Z,1.00
2022-12-11T01:36:52.750Z,1.00
2022-12-11T01:42:24.509Z,1.00
2022-12-11T01:47:56.404Z,1.00
2022-12-11T01:53:28.235Z,1.00
2022-12-11T01:59:00.322Z,1.00
2022-12-11T02:04:32.191Z,1.00
2022-12-11T02:10:04.468Z,0.00
2022-12-11T02:15:36.024Z,1.00
2022-12-11T02:21:07.940Z,0.00
2022-12-11T02:26:39.914Z,1.00
2022-12-11T02:32:12.171Z,1.00
2022-12-11T02:37:43.897Z,1.00
2022-12-11T02:43:15.615Z,0.00
2022-12-11T02:48:48.167Z,1.00
2022-12-11T02:54:20.402Z,1.00
2022-12-11T02:59:53.285Z,1.00
2022-12-11T03:05:31.196Z,1.00
2022-12-11T03:07:48.922Z,1.00
2022-12-11T03:13:20.387Z,1.00
2022-12-11T03:18:52.257Z,1.00
2022-12-11T03:24:24.217Z,1.00
2022-12-11T03:30:01.915Z,1.00
2022-12-11T03:35:33.762Z,1.00
2022-12-11T03:41:05.605Z,0.00
2022-12-11T03:46:37.399Z,0.00
2022-12-11T03:52:09.188Z,1.00
2022-12-11T03:57:40.961Z,1.00
2022-12-11T04:03:13.884Z,1.00
2022-12-11T04:08:45.041Z,1.00
2022-12-11T04:14:17.047Z,1.00
2022-12-11T04:19:49.152Z,1.00
2022-12-11T04:25:21.170Z,1.00
2022-12-11T04:30:58.926Z,1.00
2022-12-11T04:36:30.840Z,1.00
2022-12-11T04:42:02.965Z,1.00
2022-12-11T04:47:34.715Z,0.00
2022-12-11T04:53:06.839Z,0.00
2022-12-11T04:58:38.602Z,1.00
2022-12-11T05:04:16.369Z,0.00
2022-12-11T05:09:48.266Z,1.00
2022-12-11T05:15:20.560Z,1.00
2022-12-11T05:20:52.514Z,0.00
2022-12-11T05:26:24.263Z,1.00
2022-12-11T05:32:02.202Z,1.00
2022-12-11T05:37:33.937Z,0.00
2022-12-11T05:43:05.604Z,0.00
2022-12-11T05:48:38.243Z,1.00
2022-12-11T05:54:16.148Z,1.00
2022-12-11T05:59:49.048Z,1.00
2022-12-11T06:05:21.193Z,1.00
2022-12-11T06:10:52.931Z,0.00
2022-12-11T06:16:24.979Z,2.00
2022-12-11T06:27:25.867Z,10.00
2022-12-11T06:32:57.813Z,29.00
2022-12-11T06:38:29.652Z,60.00
2022-12-11T06:44:07.416Z,103.00
2022-12-11T06:49:40.131Z,172.00
2022-12-11T06:55:12.161Z,292.00
2022-12-11T07:00:43.867Z,471.00
2022-12-11T07:06:15.507Z,660.00
2022-12-11T07:11:47.118Z,870.00
2022-12-11T07:17:19.148Z,1146.00
2022-12-11T07:22:50.854Z,1377.00
2022-12-11T07:28:22.372Z,1706.00
2022-12-11T07:33:54.532Z,2442.00
2022-12-11T07:39:26.282Z,3199.00
2022-12-11T07:44:58.270Z,3864.00
2022-12-11T07:50:30.723Z,4461.00
2022-12-11T07:56:01.902Z,5150.00
2022-12-11T08:01:34.194Z,5683.00
2022-12-11T08:07:06.251Z,6479.00
2022-12-11T08:12:38.083Z,6139.00
2022-12-11T08:18:09.745Z,7639.00
2022-12-11T08:23:41.885Z,9031.00
2022-12-11T08:29:14.295Z,9557.00
2022-12-11T08:34:46.099Z,11763.00
2022-12-11T08:40:17.712Z,14616.00
2022-12-11T08:45:49.829Z,13879.00
2022-12-11T08:51:21.501Z,7197.00
2022-12-11T08:56:57.754Z,5095.00
2022-12-11T09:02:24.983Z,8728.00
2022-12-11T09:07:57.252Z,13242.00
2022-12-11T09:13:29.483Z,14807.00
2022-12-11T09:19:01.719Z,12125.00
2022-12-11T09:24:33.686Z,12244.00
2022-12-11T09:35:35.102Z,12778.00
2022-12-11T09:41:07.135Z,20820.00
2022-12-11T09:46:39.088Z,20021.00
2022-12-11T09:52:11.021Z,18153.00
2022-12-11T09:57:42.880Z,17082.00
2022-12-11T10:08:46.371Z,18449.00
2022-12-11T10:14:18.170Z,18736.00
2022-12-11T10:19:50.437Z,20423.00
2022-12-11T10:25:25.065Z,23165.00
2022-12-11T10:30:58.642Z,21832.00
2022-12-11T10:42:00.697Z,17829.00
2022-12-11T10:47:33.760Z,22203.00
2022-12-11T10:53:05.979Z,20261.00
2022-12-11T10:58:37.776Z,19918.00
2022-12-11T11:04:09.800Z,18551.00
2022-12-11T11:09:48.153Z,16613.00
2022-12-11T11:15:32.575Z,14017.00
2022-12-11T11:21:07.237Z,14664.00
2022-12-11T11:27:11.595Z,14483.00
2022-12-11T11:32:12.130Z,11555.00
2022-12-11T11:38:38.653Z,19250.00
2022-12-11T11:44:11.040Z,20206.00
2022-12-11T11:49:42.662Z,11335.00
2022-12-11T11:55:18.587Z,10284.00
2022-12-11T12:00:46.278Z,20249.00
2022-12-11T12:06:18.278Z,18232.00
2022-12-11T12:11:49.935Z,22614.00
2022-12-11T12:17:21.927Z,22514.00
2022-12-11T12:22:53.447Z,19315.00
2022-12-11T12:28:25.877Z,21319.00
2022-12-11T12:33:57.700Z,21914.00
2022-12-11T12:39:29.602Z,12744.00
2022-12-11T12:45:01.473Z,8497.00
2022-12-11T12:50:33.352Z,8922.00
2022-12-11T12:56:05.333Z,11710.00
2022-12-11T13:01:37.280Z,12990.00
2022-12-11T13:07:09.016Z,10641.00
2022-12-11T13:12:40.803Z,10422.00
2022-12-11T13:18:12.523Z,11284.00
2022-12-11T13:23:44.449Z,11494.00
2022-12-11T13:29:16.195Z,10736.00
2022-12-11T13:34:48.165Z,9263.00
2022-12-11T13:42:42.105Z,7868.00
2022-12-11T13:48:16.915Z,7527.00
2022-12-11T13:53:45.883Z,7759.00
2022-12-11T13:59:17.737Z,8374.00
2022-12-11T14:04:49.660Z,6946.00
2022-12-11T14:10:21.464Z,5917.00
2022-12-11T14:15:53.246Z,6033.00
2022-12-11T14:21:25.306Z,6059.00
2022-12-11T14:26:56.963Z,5623.00
2022-12-11T14:32:28.757Z,4725.00
2022-12-11T14:38:00.661Z,4155.00
2022-12-11T14:43:32.836Z,3481.00
2022-12-11T14:49:04.578Z,2939.00
2022-12-11T14:54:36.828Z,2442.00
2022-12-11T15:00:09.214Z,1836.00
2022-12-11T15:05:41.163Z,1398.00
2022-12-11T15:11:12.441Z,1016.00
2022-12-11T15:16:44.182Z,669.00
2022-12-11T15:22:16.275Z,449.00
2022-12-11T15:27:47.761Z,292.00
2022-12-11T15:33:21.435Z,173.00
2022-12-11T15:38:53.997Z,87.00
2022-12-11T15:46:48.303Z,27.00
2022-12-11T15:52:20.785Z,10.00
2022-12-11T15:57:52.831Z,6.00
2022-12-11T16:05:38.319Z,4.00
2022-12-11T16:11:11.407Z,2.00
2022-12-11T16:16:43.398Z,2.00
2022-12-11T16:22:15.043Z,3.00
2022-12-11T16:27:47.134Z,3.00
2022-12-11T16:33:18.888Z,2.00
2022-12-11T16:38:53.875Z,4.00
2022-12-11T16:44:22.522Z,4.00
2022-12-11T16:49:54.475Z,4.00
2022-12-11T16:55:26.446Z,3.00
2022-12-11T17:00:58.110Z,3.00
2022-12-11T17:06:36.197Z,3.00
2022-12-11T17:12:08.466Z,4.00
2022-12-11T17:17:40.329Z,2.00
2022-12-11T17:23:24.077Z,3.00
2022-12-11T17:28:56.200Z,3.00
2022-12-11T17:34:38.045Z,4.00
2022-12-11T17:40:06.385Z,4.00
2022-12-11T17:45:38.740Z,4.00
2022-12-11T17:51:16.494Z,4.00
2022-12-11T17:56:48.313Z,3.00
2022-12-11T18:02:20.202Z,2.00
2022-12-11T18:07:57.424Z,3.00
2022-12-11T18:13:23.739Z,4.00
2022-12-11T18:18:55.737Z,4.00
2022-12-11T18:24:27.516Z,3.00
2022-12-11T18:29:59.315Z,2.00
2022-12-11T18:35:31.271Z,2.00
2022-12-11T18:41:03.008Z,2.00
2022-12-11T18:46:34.917Z,3.00
2022-12-11T18:52:06.764Z,4.00
2022-12-11T18:57:38.684Z,4.00
2022-12-11T19:03:10.340Z,3.00
2022-12-11T19:08:42.293Z,4.00
2022-12-11T19:14:14.094Z,4.00
2022-12-11T19:19:46.365Z,3.00
2022-12-11T19:25:18.487Z,2.00
2022-12-11T19:30:50.864Z,2.00
2022-12-11T19:36:23.724Z,2.00
2022-12-11T19:41:56.091Z,3.00
2022-12-11T19:47:28.304Z,3.00
2022-12-11T19:53:00.223Z,2.00
2022-12-11T19:58:32.042Z,4.00
2022-12-11T20:04:03.852Z,4.00
2022-12-11T20:09:35.604Z,3.00
2022-12-11T20:15:07.318Z,2.00
2022-12-11T20:20:39.515Z,2.00
2022-12-11T20:26:11.325Z,4.00
2022-12-11T20:31:49.329Z,2.00
2022-12-11T20:42:56.726Z,2.00
2022-12-11T20:48:28.673Z,2.00
2022-12-11T20:54:00.962Z,3.00
2022-12-11T20:59:33.463Z,4.00
2022-12-11T21:05:05.525Z,3.00
2022-12-11T21:10:37.684Z,3.00
2022-12-11T21:16:09.322Z,2.00
2022-12-11T21:21:41.412Z,3.00
2022-12-11T21:27:13.769Z,2.00
2022-12-11T21:32:45.645Z,2.00
2022-12-11T21:38:17.659Z,2.00
2022-12-11T21:49:21.890Z,2.00
2022-12-11T21:55:00.187Z,1.00
2022-12-11T22:00:38.698Z,1.00
2022-12-11T22:06:10.766Z,0.00
2022-12-11T22:11:42.951Z,0.00
2022-12-11T22:17:14.867Z,1.00
2022-12-11T22:22:46.668Z,1.00
2022-12-11T22:33:48.597Z,1.00
2022-12-11T22:39:20.677Z,1.00
2022-12-11T22:44:52.393Z,1.00
2022-12-11T22:50:24.501Z,1.00
2022-12-11T23:01:29.396Z,0.00
2022-12-11T23:07:01.424Z,1.00
2022-12-11T23:12:33.639Z,0.00
2022-12-11T23:18:05.559Z,1.00
2022-12-11T23:23:37.497Z,1.00
2022-12-11T23:29:09.549Z,1.00
2022-12-11T23:34:41.758Z,0.00
2022-12-11T23:40:14.068Z,0.00
2022-12-11T23:51:15.733Z,1.00
